Venus Seven — H9RN — position and weather

sailwx.info

Track history (hours):
 
Tides and Currents Weather Stations Pressure Air Temp Water Temp Dewpoint Dewpoint Depression Visibility Wind Speed Wind Dir Waves Ship Positions

Venus Seven

Last reported at 2018-Apr-15 11:02 UTC. Time now 2018-Apr-20 08:34 UTC.
Position N 22°52' E 120°04'.

Length 93 m; draft 4.9 m.

Type: Cargo ship. MMSI: 353405000.

Date/timePositionNaut miles runAvg speedWind from/ knotsBaromVisibWave heightAir tempDewpointWater temp
2018-Apr-15 11:02N 22°52' E 120°04'512.1
2018-Apr-15 10:36N 22°48' E 120°06'212.5
2018-Apr-15 10:29N 22°47' E 120°07'611.9
2018-Apr-15 10:00N 22°42' E 120°10'611.2
2018-Apr-15 09:30N 22°38' E 120°14'3 6.9
2018-Apr-15 09:00N 22°36' E 120°18'0 0.1
2018-Apr-15 08:30N 22°36' E 120°18'0 0.0
2018-Apr-15 08:00N 22°36' E 120°18'0 0.0
2018-Apr-15 07:30N 22°36' E 120°18'0 0.0
2018-Apr-15 07:00N 22°36' E 120°18'0 0.0
2018-Apr-15 06:30N 22°36' E 120°18'0 0.0
2018-Apr-15 06:00N 22°36' E 120°18'0 0.0
2018-Apr-15 05:30N 22°36' E 120°18'0 0.0
2018-Apr-15 05:00N 22°36' E 120°18'0 0.0
2018-Apr-15 04:30N 22°36' E 120°18'0 0.0
2018-Apr-15 04:00N 22°36' E 120°18'0 0.0
2018-Apr-15 03:30N 22°36' E 120°18'0 0.0
2018-Apr-15 03:00N 22°36' E 120°18'0 0.0
2018-Apr-15 02:30N 22°36' E 120°18'0 0.0
2018-Apr-15 02:00N 22°36' E 120°18'0 0.0
2018-Apr-15 01:30N 22°36' E 120°18'0 0.0
2018-Apr-15 01:00N 22°36' E 120°18'0 0.0
2018-Apr-15 00:27N 22°36' E 120°18'0 0.0
2018-Apr-15 00:00N 22°36' E 120°18'0 0.0
2018-Apr-14 23:30N 22°36' E 120°18'3 6.0
2018-Apr-14 23:00N 22°37' E 120°15'4 7.8
2018-Apr-14 22:30N 22°38' E 120°11'612.7
2018-Apr-14 22:00N 22°44' E 120°07'712.5
2018-Apr-14 21:29N 22°49' E 120°03'612.5
2018-Apr-14 21:00N 22°54' E 119°60'13711.8
2018-Apr-14 09:24N 25°02' E 120°55'411.2
2018-Apr-14 09:00N 25°05' E 120°58'611.2
2018-Apr-14 08:30N 25°08' E 121°03'611.3
2018-Apr-14 08:00N 25°12' E 121°08'511.0
2018-Apr-14 07:30N 25°15' E 121°13'510.1
2018-Apr-14 07:00N 25°17' E 121°18'16 9.1
2018-Apr-14 05:17N 25°22' E 121°34'3 9.3
2018-Apr-14 04:58N 25°22' E 121°38'510.7
2018-Apr-14 04:30N 25°18' E 121°41'611.7
2018-Apr-14 04:00N 25°13' E 121°45'5 9.6
2018-Apr-14 03:30N 25°09' E 121°45'1 1.0
2018-Apr-14 02:59N 25°08' E 121°44'0 0.0
2018-Apr-14 02:29N 25°08' E 121°44'0 0.0
2018-Apr-14 01:59N 25°08' E 121°44'0 0.0
2018-Apr-14 01:29N 25°08' E 121°44'0 0.0
2018-Apr-14 00:59N 25°08' E 121°44'0 0.0
2018-Apr-14 00:28N 25°08' E 121°44'0 0.0
2018-Apr-13 23:59N 25°08' E 121°44'0 0.0
2018-Apr-13 23:30N 25°08' E 121°44'2 3.3
2018-Apr-13 23:01N 25°10' E 121°45'2 4.9
2018-Apr-13 22:31N 25°12' E 121°44'3 5.9
2018-Apr-13 22:00N 25°15' E 121°45'511.0
2018-Apr-13 21:31N 25°21' E 121°47'611.1
2018-Apr-13 21:01N 25°26' E 121°49'  
2018-Apr-10 22:19N 33°22' E 131°56'411.5
2018-Apr-10 21:56N 33°25' E 132°00'1011.4
2018-Apr-10 21:02N 33°33' E 132°09'1211.2
2018-Apr-10 19:58N 33°41' E 132°20'810.5
2018-Apr-10 19:11N 33°46' E 132°27'310.7
2018-Apr-10 18:55N 33°48' E 132°30'610.9
2018-Apr-10 18:21N 33°52' E 132°35'411.4
2018-Apr-10 17:58N 33°55' E 132°39'511.2
2018-Apr-10 17:30N 33°59' E 132°43'1611.7
2018-Apr-10 16:09N 34°09' E 132°58'6611.4
2018-Apr-10 10:22N 34°24' E 134°15'512.7
2018-Apr-10 09:59N 34°25' E 134°21'612.8
2018-Apr-10 09:30N 34°27' E 134°28'612.8
2018-Apr-10 09:00N 34°29' E 134°35'612.8
2018-Apr-10 08:30N 34°32' E 134°43'713.2
2018-Apr-10 08:01N 34°34' E 134°50'713.6
2018-Apr-10 07:30N 34°37' E 134°58'612.3
2018-Apr-10 07:00N 34°36' E 135°05'612.1
2018-Apr-10 06:30N 34°36' E 135°12'612.5
2018-Apr-10 06:00N 34°37' E 135°20'4 8.7
2018-Apr-10 05:30N 34°38' E 135°25'0 0.3
2018-Apr-10 05:00N 34°38' E 135°25'0 0.0
2018-Apr-10 04:30N 34°38' E 135°25'0 0.0
2018-Apr-10 04:00N 34°38' E 135°25'0 0.0
2018-Apr-10 03:30N 34°38' E 135°25'0 0.0
2018-Apr-10 03:00N 34°38' E 135°25'0 0.0
2018-Apr-10 02:30N 34°38' E 135°25'0 0.0
2018-Apr-10 02:00N 34°38' E 135°25'0 0.0
2018-Apr-10 01:30N 34°38' E 135°25'0 0.0
2018-Apr-10 01:00N 34°38' E 135°25'0 0.0
2018-Apr-10 00:30N 34°38' E 135°25'0 0.0
2018-Apr-10 00:00N 34°38' E 135°25'0 0.0
2018-Apr-09 23:30N 34°38' E 135°25'0 0.0
2018-Apr-09 22:57N 34°38' E 135°25'0 0.0
2018-Apr-09 22:30N 34°38' E 135°25'0 0.0
2018-Apr-09 22:00N 34°38' E 135°25'0 0.0
2018-Apr-09 21:30N 34°38' E 135°25'0 0.0
2018-Apr-09 21:00N 34°38' E 135°25'0 0.0
2018-Apr-09 20:30N 34°38' E 135°25'0 0.0
2018-Apr-09 20:00N 34°38' E 135°25'0 0.0
2018-Apr-09 19:30N 34°38' E 135°25'0 0.0
2018-Apr-09 19:00N 34°38' E 135°25'0 0.0
2018-Apr-09 18:30N 34°38' E 135°25'0 0.0
2018-Apr-09 18:00N 34°38' E 135°25'0 0.0
2018-Apr-09 17:29N 34°38' E 135°25'0 0.0
2018-Apr-09 16:59N 34°38' E 135°25'0 0.0
2018-Apr-09 16:29N 34°38' E 135°25'0 0.0
2018-Apr-09 15:59N 34°38' E 135°25'0 0.0
2018-Apr-09 15:30N 34°38' E 135°25'0 0.0
2018-Apr-09 14:59N 34°38' E 135°25'0 0.0
2018-Apr-09 14:29N 34°38' E 135°25'0 0.0
2018-Apr-09 13:59N 34°38' E 135°25'0 0.0
2018-Apr-09 13:29N 34°38' E 135°25'0 0.0
2018-Apr-09 12:59N 34°38' E 135°25'0 0.0
2018-Apr-09 12:29N 34°38' E 135°25'0 0.0
2018-Apr-09 11:59N 34°38' E 135°25'0 0.0
2018-Apr-09 11:29N 34°38' E 135°25'0 0.0
2018-Apr-09 10:59N 34°38' E 135°25'0 0.0
2018-Apr-09 10:29N 34°38' E 135°25'0 0.0
2018-Apr-09 09:59N 34°38' E 135°25'0 0.0
2018-Apr-09 09:29N 34°38' E 135°25'0 0.0
2018-Apr-09 08:59N 34°38' E 135°25'0 0.0
2018-Apr-09 08:30N 34°38' E 135°25'0 0.5
2018-Apr-09 07:58N 34°38' E 135°25'0 0.0
2018-Apr-09 07:28N 34°38' E 135°25'0 0.0
2018-Apr-09 06:58N 34°38' E 135°25'0 0.0
2018-Apr-09 06:28N 34°38' E 135°25'0 0.0
2018-Apr-09 05:58N 34°38' E 135°25'0 0.0
2018-Apr-09 05:28N 34°38' E 135°25'0 0.0
2018-Apr-09 04:58N 34°38' E 135°25'0 0.0
2018-Apr-09 04:28N 34°38' E 135°25'0 0.0
2018-Apr-09 03:58N 34°38' E 135°25'0 0.0
2018-Apr-09 03:28N 34°38' E 135°25'0 0.0
2018-Apr-09 02:58N 34°38' E 135°25'0 0.0
2018-Apr-09 02:28N 34°38' E 135°25'0 0.0
2018-Apr-09 01:58N 34°38' E 135°25'0 0.0
2018-Apr-09 01:28N 34°38' E 135°25'0 0.0
2018-Apr-09 00:58N 34°38' E 135°25'0 0.0
2018-Apr-09 00:28N 34°38' E 135°25'0 0.0
2018-Apr-08 23:58N 34°38' E 135°25'0 0.0
2018-Apr-08 23:28N 34°38' E 135°25'0 0.0
2018-Apr-08 22:58N 34°38' E 135°25'0 0.0
2018-Apr-08 22:28N 34°38' E 135°25'0 0.0
2018-Apr-08 22:00N 34°38' E 135°25'1 2.4
2018-Apr-08 21:31N 34°38' E 135°23'3 5.2
2018-Apr-08 21:00N 34°39' E 135°26'0 0.0
2018-Apr-08 20:27N 34°39' E 135°26'0 0.0
2018-Apr-08 20:00N 34°39' E 135°26'0 0.0
2018-Apr-08 19:30N 34°39' E 135°26'0 0.0
2018-Apr-08 19:00N 34°39' E 135°26'0 0.0
2018-Apr-08 18:30N 34°39' E 135°26'0 0.0
2018-Apr-08 18:00N 34°39' E 135°26'0 0.0
2018-Apr-08 17:30N 34°39' E 135°26'0 0.0
2018-Apr-08 17:00N 34°39' E 135°26'0 0.0
2018-Apr-08 16:30N 34°39' E 135°26'0 0.0
2018-Apr-08 16:00N 34°39' E 135°26'0 0.0
2018-Apr-08 15:27N 34°39' E 135°26'0 0.0
2018-Apr-08 15:00N 34°39' E 135°26'0 0.0
2018-Apr-08 14:30N 34°39' E 135°26'0 0.0
2018-Apr-08 14:00N 34°39' E 135°26'0 0.0
2018-Apr-08 13:30N 34°39' E 135°26'0 0.0
2018-Apr-08 13:00N 34°39' E 135°26'0 0.0
2018-Apr-08 12:30N 34°39' E 135°26'0 0.0
2018-Apr-08 12:00N 34°39' E 135°26'0 0.0
2018-Apr-08 11:29N 34°39' E 135°26'0 0.0
2018-Apr-08 11:00N 34°39' E 135°26'0 0.0
2018-Apr-08 10:30N 34°39' E 135°26'0 0.0
2018-Apr-08 10:00N 34°39' E 135°26'0 0.0
2018-Apr-08 09:29N 34°39' E 135°26'0 0.0
2018-Apr-08 08:59N 34°39' E 135°26'0 0.0
2018-Apr-08 08:29N 34°39' E 135°26'0 0.0
2018-Apr-08 07:59N 34°39' E 135°26'0 0.0
2018-Apr-08 07:29N 34°39' E 135°26'0 0.0
2018-Apr-08 06:59N 34°39' E 135°26'0 0.0
2018-Apr-08 06:29N 34°39' E 135°26'0 0.0
2018-Apr-08 05:59N 34°39' E 135°26'0 0.0
2018-Apr-08 05:29N 34°39' E 135°26'0 0.0
2018-Apr-08 04:59N 34°39' E 135°26'0 0.0
2018-Apr-08 04:29N 34°39' E 135°26'0 0.0
2018-Apr-08 03:59N 34°39' E 135°26'0 0.0
2018-Apr-08 03:29N 34°39' E 135°26'0 0.0
2018-Apr-08 02:59N 34°39' E 135°26'0 0.0
2018-Apr-08 02:29N 34°39' E 135°26'0 0.0
2018-Apr-08 01:59N 34°39' E 135°26'0 0.0
2018-Apr-08 01:29N 34°39' E 135°26'0 0.0
2018-Apr-08 00:59N 34°39' E 135°26'0 0.0
2018-Apr-08 00:29N 34°39' E 135°26'0 0.0
2018-Apr-07 23:59N 34°39' E 135°26'0 0.0
2018-Apr-07 23:29N 34°39' E 135°26'0 0.0
2018-Apr-07 22:59N 34°39' E 135°26'0 0.0
2018-Apr-07 22:29N 34°39' E 135°26'0 0.0
2018-Apr-07 21:59N 34°39' E 135°26'0 0.0
2018-Apr-07 21:29N 34°39' E 135°26'0 0.0
2018-Apr-07 20:59N 34°39' E 135°26'0 0.0
2018-Apr-07 20:29N 34°39' E 135°26'0 0.0
2018-Apr-07 19:59N 34°39' E 135°26'0 0.0
2018-Apr-07 19:29N 34°39' E 135°26'0 0.0
2018-Apr-07 18:59N 34°39' E 135°26'0 0.0
2018-Apr-07 18:29N 34°39' E 135°26'0 0.0
2018-Apr-07 17:56N 34°39' E 135°26'0 0.0
2018-Apr-07 17:29N 34°39' E 135°26'0 0.0
2018-Apr-07 16:59N 34°39' E 135°26'0 0.0
2018-Apr-07 16:29N 34°39' E 135°26'0 0.0
2018-Apr-07 15:59N 34°39' E 135°26'0 0.0
2018-Apr-07 15:29N 34°39' E 135°26'0 0.0
2018-Apr-07 14:59N 34°39' E 135°26'0 0.0
2018-Apr-07 14:29N 34°39' E 135°26'0 0.0
2018-Apr-07 13:59N 34°39' E 135°26'0 0.2
2018-Apr-07 13:29N 34°39' E 135°26'0 0.2
2018-Apr-07 12:59N 34°39' E 135°26'0 0.0
2018-Apr-07 12:29N 34°39' E 135°26'0 0.0
2018-Apr-07 11:59N 34°39' E 135°26'0 0.0
2018-Apr-07 11:29N 34°39' E 135°26'0 0.0
2018-Apr-07 10:56N 34°39' E 135°26'0 0.0
2018-Apr-07 10:29N 34°39' E 135°26'0 0.0
2018-Apr-07 09:59N 34°39' E 135°26'0 0.0
2018-Apr-07 09:29N 34°39' E 135°26'0 0.0
2018-Apr-07 08:59N 34°39' E 135°26'0 0.0
2018-Apr-07 08:29N 34°39' E 135°26'0 0.0
2018-Apr-07 07:59N 34°39' E 135°26'0 0.0
2018-Apr-07 07:29N 34°39' E 135°26'0 0.0
2018-Apr-07 06:59N 34°39' E 135°26'0 0.0
2018-Apr-07 06:26N 34°39' E 135°26'0 0.0
2018-Apr-07 05:59N 34°39' E 135°26'0 0.0
2018-Apr-07 05:29N 34°39' E 135°26'0 0.0
2018-Apr-07 04:59N 34°39' E 135°26'0 0.0
2018-Apr-07 04:29N 34°39' E 135°26'0 0.0
2018-Apr-07 03:53N 34°39' E 135°26'0 0.0
2018-Apr-07 03:29N 34°39' E 135°26'0 0.0
2018-Apr-07 02:59N 34°39' E 135°26'0 0.0
2018-Apr-07 02:29N 34°39' E 135°26'0 0.0
2018-Apr-07 01:59N 34°39' E 135°26'0 0.0
2018-Apr-07 01:29N 34°39' E 135°26'0 0.0
2018-Apr-07 00:59N 34°39' E 135°26'0 0.0
2018-Apr-07 00:29N 34°39' E 135°26'0 0.0
2018-Apr-06 23:59N 34°39' E 135°26'0 0.0
2018-Apr-06 23:29N 34°39' E 135°26'0 0.0
2018-Apr-06 22:58N 34°39' E 135°26'0 0.0
2018-Apr-06 22:28N 34°39' E 135°26'0 0.0
2018-Apr-06 22:01N 34°39' E 135°26'1 2.4
2018-Apr-06 21:30N 34°39' E 135°25'3 5.6
2018-Apr-06 20:58N 34°37' E 135°22'0 0.0
2018-Apr-06 20:28N 34°37' E 135°22'0 0.0
2018-Apr-06 19:58N 34°37' E 135°22'0 0.0
2018-Apr-06 19:28N 34°37' E 135°22'0 0.0
2018-Apr-06 18:58N 34°37' E 135°22'0 0.0
2018-Apr-06 18:28N 34°37' E 135°22'0 0.0
2018-Apr-06 17:58N 34°37' E 135°22'0 0.0
2018-Apr-06 17:28N 34°37' E 135°22'0 0.0
2018-Apr-06 16:58N 34°37' E 135°22'0 0.0
2018-Apr-06 16:28N 34°37' E 135°22'0 0.0
2018-Apr-06 15:58N 34°37' E 135°22'0 0.0
2018-Apr-06 15:28N 34°37' E 135°22'0 0.0
2018-Apr-06 14:58N 34°37' E 135°22'0 0.0
2018-Apr-06 14:28N 34°37' E 135°22'0 0.0
2018-Apr-06 13:58N 34°37' E 135°22'0 0.0
2018-Apr-06 13:28N 34°37' E 135°22'1 1.4
2018-Apr-06 13:00N 34°36' E 135°21'612.5
2018-Apr-06 12:30N 34°35' E 135°14'713.6
2018-Apr-06 12:00N 34°35' E 135°06'712.8
2018-Apr-06 11:30N 34°37' E 134°58'714.4
2018-Apr-06 11:00N 34°34' E 134°51'713.7
2018-Apr-06 10:31N 34°31' E 134°43'713.7
2018-Apr-06 10:00N 34°28' E 134°35'713.5
2018-Apr-06 09:31N 34°26' E 134°28'713.3
2018-Apr-06 09:00N 34°24' E 134°20'  
Track history (hours):
 
Tides and Currents Weather Stations Pressure Air Temp Water Temp Dewpoint Dewpoint Depression Visibility Wind Speed Wind Dir Waves Ship Positions

Venus Seven

Last reported at 2018-Apr-15 11:02 UTC. Time now 2018-Apr-20 08:34 UTC.
Position N 22°52' E 120°04'.

Length 93 m; draft 4.9 m.

Type: Cargo ship. MMSI: 353405000.

Date/timePositionNaut miles runAvg speedWind from/ knotsBaromVisibWave heightAir tempDewpointWater temp
2018-Apr-15 11:02N 22°52' E 120°04'512.1
2018-Apr-15 10:36N 22°48' E 120°06'212.5
2018-Apr-15 10:29N 22°47' E 120°07'611.9
2018-Apr-15 10:00N 22°42' E 120°10'611.2
2018-Apr-15 09:30N 22°38' E 120°14'3 6.9
2018-Apr-15 09:00N 22°36' E 120°18'0 0.1
2018-Apr-15 08:30N 22°36' E 120°18'0 0.0
2018-Apr-15 08:00N 22°36' E 120°18'0 0.0
2018-Apr-15 07:30N 22°36' E 120°18'0 0.0
2018-Apr-15 07:00N 22°36' E 120°18'0 0.0
2018-Apr-15 06:30N 22°36' E 120°18'0 0.0
2018-Apr-15 06:00N 22°36' E 120°18'0 0.0
2018-Apr-15 05:30N 22°36' E 120°18'0 0.0
2018-Apr-15 05:00N 22°36' E 120°18'0 0.0
2018-Apr-15 04:30N 22°36' E 120°18'0 0.0
2018-Apr-15 04:00N 22°36' E 120°18'0 0.0
2018-Apr-15 03:30N 22°36' E 120°18'0 0.0
2018-Apr-15 03:00N 22°36' E 120°18'0 0.0
2018-Apr-15 02:30N 22°36' E 120°18'0 0.0
2018-Apr-15 02:00N 22°36' E 120°18'0 0.0
2018-Apr-15 01:30N 22°36' E 120°18'0 0.0
2018-Apr-15 01:00N 22°36' E 120°18'0 0.0
2018-Apr-15 00:27N 22°36' E 120°18'0 0.0
2018-Apr-15 00:00N 22°36' E 120°18'0 0.0
2018-Apr-14 23:30N 22°36' E 120°18'3 6.0
2018-Apr-14 23:00N 22°37' E 120°15'4 7.8
2018-Apr-14 22:30N 22°38' E 120°11'612.7
2018-Apr-14 22:00N 22°44' E 120°07'712.5
2018-Apr-14 21:29N 22°49' E 120°03'612.5
2018-Apr-14 21:00N 22°54' E 119°60'13711.8
2018-Apr-14 09:24N 25°02' E 120°55'411.2
2018-Apr-14 09:00N 25°05' E 120°58'611.2
2018-Apr-14 08:30N 25°08' E 121°03'611.3
2018-Apr-14 08:00N 25°12' E 121°08'511.0
2018-Apr-14 07:30N 25°15' E 121°13'510.1
2018-Apr-14 07:00N 25°17' E 121°18'16 9.1
2018-Apr-14 05:17N 25°22' E 121°34'3 9.3
2018-Apr-14 04:58N 25°22' E 121°38'510.7
2018-Apr-14 04:30N 25°18' E 121°41'611.7
2018-Apr-14 04:00N 25°13' E 121°45'5 9.6
2018-Apr-14 03:30N 25°09' E 121°45'1 1.0
2018-Apr-14 02:59N 25°08' E 121°44'0 0.0
2018-Apr-14 02:29N 25°08' E 121°44'0 0.0
2018-Apr-14 01:59N 25°08' E 121°44'0 0.0
2018-Apr-14 01:29N 25°08' E 121°44'0 0.0
2018-Apr-14 00:59N 25°08' E 121°44'0 0.0
2018-Apr-14 00:28N 25°08' E 121°44'0 0.0
2018-Apr-13 23:59N 25°08' E 121°44'0 0.0
2018-Apr-13 23:30N 25°08' E 121°44'2 3.3
2018-Apr-13 23:01N 25°10' E 121°45'2 4.9
2018-Apr-13 22:31N 25°12' E 121°44'3 5.9
2018-Apr-13 22:00N 25°15' E 121°45'511.0
2018-Apr-13 21:31N 25°21' E 121°47'611.1
2018-Apr-13 21:01N 25°26' E 121°49'  
2018-Apr-10 22:19N 33°22' E 131°56'411.5
2018-Apr-10 21:56N 33°25' E 132°00'1011.4
2018-Apr-10 21:02N 33°33' E 132°09'1211.2
2018-Apr-10 19:58N 33°41' E 132°20'810.5
2018-Apr-10 19:11N 33°46' E 132°27'310.7
2018-Apr-10 18:55N 33°48' E 132°30'610.9
2018-Apr-10 18:21N 33°52' E 132°35'411.4
2018-Apr-10 17:58N 33°55' E 132°39'511.2
2018-Apr-10 17:30N 33°59' E 132°43'1611.7
2018-Apr-10 16:09N 34°09' E 132°58'6611.4
2018-Apr-10 10:22N 34°24' E 134°15'512.7
2018-Apr-10 09:59N 34°25' E 134°21'612.8
2018-Apr-10 09:30N 34°27' E 134°28'612.8
2018-Apr-10 09:00N 34°29' E 134°35'612.8
2018-Apr-10 08:30N 34°32' E 134°43'713.2
2018-Apr-10 08:01N 34°34' E 134°50'713.6
2018-Apr-10 07:30N 34°37' E 134°58'612.3
2018-Apr-10 07:00N 34°36' E 135°05'612.1
2018-Apr-10 06:30N 34°36' E 135°12'612.5
2018-Apr-10 06:00N 34°37' E 135°20'4 8.7
2018-Apr-10 05:30N 34°38' E 135°25'0 0.3
2018-Apr-10 05:00N 34°38' E 135°25'0 0.0
2018-Apr-10 04:30N 34°38' E 135°25'0 0.0
2018-Apr-10 04:00N 34°38' E 135°25'0 0.0
2018-Apr-10 03:30N 34°38' E 135°25'0 0.0
2018-Apr-10 03:00N 34°38' E 135°25'0 0.0
2018-Apr-10 02:30N 34°38' E 135°25'0 0.0
2018-Apr-10 02:00N 34°38' E 135°25'0 0.0
2018-Apr-10 01:30N 34°38' E 135°25'0 0.0
2018-Apr-10 01:00N 34°38' E 135°25'0 0.0
2018-Apr-10 00:30N 34°38' E 135°25'0 0.0
2018-Apr-10 00:00N 34°38' E 135°25'0 0.0
2018-Apr-09 23:30N 34°38' E 135°25'0 0.0
2018-Apr-09 22:57N 34°38' E 135°25'0 0.0
2018-Apr-09 22:30N 34°38' E 135°25'0 0.0
2018-Apr-09 22:00N 34°38' E 135°25'0 0.0
2018-Apr-09 21:30N 34°38' E 135°25'0 0.0
2018-Apr-09 21:00N 34°38' E 135°25'0 0.0
2018-Apr-09 20:30N 34°38' E 135°25'0 0.0
2018-Apr-09 20:00N 34°38' E 135°25'0 0.0
2018-Apr-09 19:30N 34°38' E 135°25'0 0.0
2018-Apr-09 19:00N 34°38' E 135°25'0 0.0
2018-Apr-09 18:30N 34°38' E 135°25'0 0.0
2018-Apr-09 18:00N 34°38' E 135°25'0 0.0
2018-Apr-09 17:29N 34°38' E 135°25'0 0.0
2018-Apr-09 16:59N 34°38' E 135°25'0 0.0
2018-Apr-09 16:29N 34°38' E 135°25'0 0.0
2018-Apr-09 15:59N 34°38' E 135°25'0 0.0
2018-Apr-09 15:30N 34°38' E 135°25'0 0.0
2018-Apr-09 14:59N 34°38' E 135°25'0 0.0
2018-Apr-09 14:29N 34°38' E 135°25'0 0.0
2018-Apr-09 13:59N 34°38' E 135°25'0 0.0
2018-Apr-09 13:29N 34°38' E 135°25'0 0.0
2018-Apr-09 12:59N 34°38' E 135°25'0 0.0
2018-Apr-09 12:29N 34°38' E 135°25'0 0.0
2018-Apr-09 11:59N 34°38' E 135°25'0 0.0
2018-Apr-09 11:29N 34°38' E 135°25'0 0.0
2018-Apr-09 10:59N 34°38' E 135°25'0 0.0
2018-Apr-09 10:29N 34°38' E 135°25'0 0.0
2018-Apr-09 09:59N 34°38' E 135°25'0 0.0
2018-Apr-09 09:29N 34°38' E 135°25'0 0.0
2018-Apr-09 08:59N 34°38' E 135°25'0 0.0
2018-Apr-09 08:30N 34°38' E 135°25'0 0.5
2018-Apr-09 07:58N 34°38' E 135°25'0 0.0
2018-Apr-09 07:28N 34°38' E 135°25'0 0.0
2018-Apr-09 06:58N 34°38' E 135°25'0 0.0
2018-Apr-09 06:28N 34°38' E 135°25'0 0.0
2018-Apr-09 05:58N 34°38' E 135°25'0 0.0
2018-Apr-09 05:28N 34°38' E 135°25'0 0.0
2018-Apr-09 04:58N 34°38' E 135°25'0 0.0
2018-Apr-09 04:28N 34°38' E 135°25'0 0.0
2018-Apr-09 03:58N 34°38' E 135°25'0 0.0
2018-Apr-09 03:28N 34°38' E 135°25'0 0.0
2018-Apr-09 02:58N 34°38' E 135°25'0 0.0
2018-Apr-09 02:28N 34°38' E 135°25'0 0.0
2018-Apr-09 01:58N 34°38' E 135°25'0 0.0
2018-Apr-09 01:28N 34°38' E 135°25'0 0.0
2018-Apr-09 00:58N 34°38' E 135°25'0 0.0
2018-Apr-09 00:28N 34°38' E 135°25'0 0.0
2018-Apr-08 23:58N 34°38' E 135°25'0 0.0
2018-Apr-08 23:28N 34°38' E 135°25'0 0.0
2018-Apr-08 22:58N 34°38' E 135°25'0 0.0
2018-Apr-08 22:28N 34°38' E 135°25'0 0.0
2018-Apr-08 22:00N 34°38' E 135°25'1 2.4
2018-Apr-08 21:31N 34°38' E 135°23'3 5.2
2018-Apr-08 21:00N 34°39' E 135°26'0 0.0
2018-Apr-08 20:27N 34°39' E 135°26'0 0.0
2018-Apr-08 20:00N 34°39' E 135°26'0 0.0
2018-Apr-08 19:30N 34°39' E 135°26'0 0.0
2018-Apr-08 19:00N 34°39' E 135°26'0 0.0
2018-Apr-08 18:30N 34°39' E 135°26'0 0.0
2018-Apr-08 18:00N 34°39' E 135°26'0 0.0
2018-Apr-08 17:30N 34°39' E 135°26'0 0.0
2018-Apr-08 17:00N 34°39' E 135°26'0 0.0
2018-Apr-08 16:30N 34°39' E 135°26'0 0.0
2018-Apr-08 16:00N 34°39' E 135°26'0 0.0
2018-Apr-08 15:27N 34°39' E 135°26'0 0.0
2018-Apr-08 15:00N 34°39' E 135°26'0 0.0
2018-Apr-08 14:30N 34°39' E 135°26'0 0.0
2018-Apr-08 14:00N 34°39' E 135°26'0 0.0
2018-Apr-08 13:30N 34°39' E 135°26'0 0.0
2018-Apr-08 13:00N 34°39' E 135°26'0 0.0
2018-Apr-08 12:30N 34°39' E 135°26'0 0.0
2018-Apr-08 12:00N 34°39' E 135°26'0 0.0
2018-Apr-08 11:29N 34°39' E 135°26'0 0.0
2018-Apr-08 11:00N 34°39' E 135°26'0 0.0
2018-Apr-08 10:30N 34°39' E 135°26'0 0.0
2018-Apr-08 10:00N 34°39' E 135°26'0 0.0
2018-Apr-08 09:29N 34°39' E 135°26'0 0.0
2018-Apr-08 08:59N 34°39' E 135°26'0 0.0
2018-Apr-08 08:29N 34°39' E 135°26'0 0.0
2018-Apr-08 07:59N 34°39' E 135°26'0 0.0
2018-Apr-08 07:29N 34°39' E 135°26'0 0.0
2018-Apr-08 06:59N 34°39' E 135°26'0 0.0
2018-Apr-08 06:29N 34°39' E 135°26'0 0.0
2018-Apr-08 05:59N 34°39' E 135°26'0 0.0
2018-Apr-08 05:29N 34°39' E 135°26'0 0.0
2018-Apr-08 04:59N 34°39' E 135°26'0 0.0
2018-Apr-08 04:29N 34°39' E 135°26'0 0.0
2018-Apr-08 03:59N 34°39' E 135°26'0 0.0
2018-Apr-08 03:29N 34°39' E 135°26'0 0.0
2018-Apr-08 02:59N 34°39' E 135°26'0 0.0
2018-Apr-08 02:29N 34°39' E 135°26'0 0.0
2018-Apr-08 01:59N 34°39' E 135°26'0 0.0
2018-Apr-08 01:29N 34°39' E 135°26'0 0.0
2018-Apr-08 00:59N 34°39' E 135°26'0 0.0
2018-Apr-08 00:29N 34°39' E 135°26'0 0.0
2018-Apr-07 23:59N 34°39' E 135°26'0 0.0
2018-Apr-07 23:29N 34°39' E 135°26'0 0.0
2018-Apr-07 22:59N 34°39' E 135°26'0 0.0
2018-Apr-07 22:29N 34°39' E 135°26'0 0.0
2018-Apr-07 21:59N 34°39' E 135°26'0 0.0
2018-Apr-07 21:29N 34°39' E 135°26'0 0.0
2018-Apr-07 20:59N 34°39' E 135°26'0 0.0
2018-Apr-07 20:29N 34°39' E 135°26'0 0.0
2018-Apr-07 19:59N 34°39' E 135°26'0 0.0
2018-Apr-07 19:29N 34°39' E 135°26'0 0.0
2018-Apr-07 18:59N 34°39' E 135°26'0 0.0
2018-Apr-07 18:29N 34°39' E 135°26'0 0.0
2018-Apr-07 17:56N 34°39' E 135°26'0 0.0
2018-Apr-07 17:29N 34°39' E 135°26'0 0.0
2018-Apr-07 16:59N 34°39' E 135°26'0 0.0
2018-Apr-07 16:29N 34°39' E 135°26'0 0.0
2018-Apr-07 15:59N 34°39' E 135°26'0 0.0
2018-Apr-07 15:29N 34°39' E 135°26'0 0.0
2018-Apr-07 14:59N 34°39' E 135°26'0 0.0
2018-Apr-07 14:29N 34°39' E 135°26'0 0.0
2018-Apr-07 13:59N 34°39' E 135°26'0 0.2
2018-Apr-07 13:29N 34°39' E 135°26'0 0.2
2018-Apr-07 12:59N 34°39' E 135°26'0 0.0
2018-Apr-07 12:29N 34°39' E 135°26'0 0.0
2018-Apr-07 11:59N 34°39' E 135°26'0 0.0
2018-Apr-07 11:29N 34°39' E 135°26'0 0.0
2018-Apr-07 10:56N 34°39' E 135°26'0 0.0
2018-Apr-07 10:29N 34°39' E 135°26'0 0.0
2018-Apr-07 09:59N 34°39' E 135°26'0 0.0
2018-Apr-07 09:29N 34°39' E 135°26'0 0.0
2018-Apr-07 08:59N 34°39' E 135°26'0 0.0
2018-Apr-07 08:29N 34°39' E 135°26'0 0.0
2018-Apr-07 07:59N 34°39' E 135°26'0 0.0
2018-Apr-07 07:29N 34°39' E 135°26'0 0.0
2018-Apr-07 06:59N 34°39' E 135°26'0 0.0
2018-Apr-07 06:26N 34°39' E 135°26'0 0.0
2018-Apr-07 05:59N 34°39' E 135°26'0 0.0
2018-Apr-07 05:29N 34°39' E 135°26'0 0.0
2018-Apr-07 04:59N 34°39' E 135°26'0 0.0
2018-Apr-07 04:29N 34°39' E 135°26'0 0.0
2018-Apr-07 03:53N 34°39' E 135°26'0 0.0
2018-Apr-07 03:29N 34°39' E 135°26'0 0.0
2018-Apr-07 02:59N 34°39' E 135°26'0 0.0
2018-Apr-07 02:29N 34°39' E 135°26'0 0.0
2018-Apr-07 01:59N 34°39' E 135°26'0 0.0
2018-Apr-07 01:29N 34°39' E 135°26'0 0.0
2018-Apr-07 00:59N 34°39' E 135°26'0 0.0
2018-Apr-07 00:29N 34°39' E 135°26'0 0.0
2018-Apr-06 23:59N 34°39' E 135°26'0 0.0
2018-Apr-06 23:29N 34°39' E 135°26'0 0.0
2018-Apr-06 22:58N 34°39' E 135°26'0 0.0
2018-Apr-06 22:28N 34°39' E 135°26'0 0.0
2018-Apr-06 22:01N 34°39' E 135°26'1 2.4
2018-Apr-06 21:30N 34°39' E 135°25'3 5.6
2018-Apr-06 20:58N 34°37' E 135°22'0 0.0
2018-Apr-06 20:28N 34°37' E 135°22'0 0.0
2018-Apr-06 19:58N 34°37' E 135°22'0 0.0
2018-Apr-06 19:28N 34°37' E 135°22'0 0.0
2018-Apr-06 18:58N 34°37' E 135°22'0 0.0
2018-Apr-06 18:28N 34°37' E 135°22'0 0.0
2018-Apr-06 17:58N 34°37' E 135°22'0 0.0
2018-Apr-06 17:28N 34°37' E 135°22'0 0.0
2018-Apr-06 16:58N 34°37' E 135°22'0 0.0
2018-Apr-06 16:28N 34°37' E 135°22'0 0.0
2018-Apr-06 15:58N 34°37' E 135°22'0 0.0
2018-Apr-06 15:28N 34°37' E 135°22'0 0.0
2018-Apr-06 14:58N 34°37' E 135°22'0 0.0
2018-Apr-06 14:28N 34°37' E 135°22'0 0.0
2018-Apr-06 13:58N 34°37' E 135°22'0 0.0
2018-Apr-06 13:28N 34°37' E 135°22'1 1.4
2018-Apr-06 13:00N 34°36' E 135°21'612.5
2018-Apr-06 12:30N 34°35' E 135°14'713.6
2018-Apr-06 12:00N 34°35' E 135°06'712.8
2018-Apr-06 11:30N 34°37' E 134°58'714.4
2018-Apr-06 11:00N 34°34' E 134°51'713.7
2018-Apr-06 10:31N 34°31' E 134°43'713.7
2018-Apr-06 10:00N 34°28' E 134°35'713.5
2018-Apr-06 09:31N 34°26' E 134°28'713.3
2018-Apr-06 09:00N 34°24' E 134°20'  

Dump ship's entire track history